createdAt,value
2019-03-10T00:00:40.778Z,99280.22
2019-03-10T00:03:09.007Z,99286.08
2019-03-10T00:05:37.248Z,99282.16
2019-03-10T00:08:07.881Z,99290.18
2019-03-10T00:10:35.438Z,99278.94
2019-03-10T00:13:03.988Z,99281.91
2019-03-10T00:15:32.466Z,99277.80
2019-03-10T00:18:00.691Z,99277.10
2019-03-10T00:20:28.927Z,99274.54
2019-03-10T00:22:57.401Z,99278.31
2019-03-10T00:25:25.640Z,99281.91
2019-03-10T00:27:54.374Z,99287.03
2019-03-10T00:30:22.779Z,99290.33
2019-03-10T00:32:51.007Z,99263.08
2019-03-10T00:35:19.243Z,99299.30
2019-03-10T00:37:47.701Z,99299.73
2019-03-10T00:40:36.976Z,99299.11
2019-03-10T00:43:24.634Z,99296.77
2019-03-10T00:46:29.383Z,99288.95
2019-03-10T00:49:26.216Z,99277.44
2019-03-10T00:52:00.406Z,99264.74
2019-03-10T00:54:28.622Z,99249.27
2019-03-10T00:56:56.957Z,99256.43
2019-03-10T00:59:25.462Z,99245.25
2019-03-10T01:01:53.995Z,99246.47
2019-03-10T01:04:22.511Z,99249.77
2019-03-10T01:06:51.678Z,99233.75
2019-03-10T01:09:19.902Z,99242.66
2019-03-10T01:11:48.541Z,99239.08
2019-03-10T01:14:16.762Z,99232.97
2019-03-10T01:16:45.464Z,99231.00
2019-03-10T01:19:13.917Z,99237.81
2019-03-10T01:21:42.879Z,99235.66
2019-03-10T01:24:11.103Z,99222.83
2019-03-10T01:26:39.568Z,99217.63
2019-03-10T01:29:07.793Z,99221.41
2019-03-10T01:32:01.780Z,99203.45
2019-03-10T01:34:41.723Z,99215.39
2019-03-10T01:37:09.954Z,99215.33
2019-03-10T01:39:38.182Z,99214.34
2019-03-10T01:42:06.422Z,99219.73
2019-03-10T01:44:34.654Z,99205.22
2019-03-10T01:47:02.933Z,99210.34
2019-03-10T01:49:31.114Z,99215.41
2019-03-10T01:51:59.640Z,99198.16
2019-03-10T01:54:27.868Z,99186.80
2019-03-10T01:56:56.115Z,99181.26
2019-03-10T01:59:24.344Z,99174.11
2019-03-10T02:01:52.593Z,99169.86
2019-03-10T02:04:21.136Z,99151.19
2019-03-10T02:06:49.618Z,99147.17
2019-03-10T02:09:18.098Z,99140.63
2019-03-10T02:11:46.333Z,99125.45
2019-03-10T02:14:14.576Z,99120.66
2019-03-10T02:16:42.822Z,99112.80
2019-03-10T02:19:11.046Z,99096.26
2019-03-10T02:21:39.288Z,99085.59
2019-03-10T02:24:23.652Z,99075.41
2019-03-10T02:26:47.289Z,99069.06
2019-03-10T02:29:15.512Z,99069.94
2019-03-10T02:31:44.060Z,99065.61
2019-03-10T02:34:12.287Z,99063.86
2019-03-10T02:36:40.509Z,99059.47
2019-03-10T02:39:09.207Z,99050.97
2019-03-10T02:41:37.431Z,99043.05
2019-03-10T02:44:05.730Z,99027.81
2019-03-10T02:46:33.897Z,99011.08
2019-03-10T02:49:02.428Z,99006.89
2019-03-10T02:51:30.645Z,98992.45
2019-03-10T02:53:58.877Z,98972.61
2019-03-10T02:56:27.340Z,98978.41
2019-03-10T02:58:55.578Z,98978.41
2019-03-10T03:01:23.802Z,98972.93
2019-03-10T03:03:52.041Z,98969.02
2019-03-10T03:06:20.264Z,98969.15
2019-03-10T03:08:48.503Z,98957.33
2019-03-10T03:11:16.725Z,98954.85
2019-03-10T03:13:44.968Z,98945.19
2019-03-10T03:16:13.195Z,98934.17
2019-03-10T03:18:41.450Z,98932.83
2019-03-10T03:21:10.014Z,98910.55
2019-03-10T03:23:38.263Z,98900.75
2019-03-10T03:26:06.476Z,98913.99
2019-03-10T03:28:34.950Z,98926.35
2019-03-10T03:31:03.224Z,98937.83
2019-03-10T03:33:31.438Z,98938.08
2019-03-10T03:36:03.159Z,98938.11
2019-03-10T03:38:43.349Z,98929.95
2019-03-10T03:41:25.443Z,98929.33
2019-03-10T03:43:53.679Z,98921.97
2019-03-10T03:46:21.899Z,98927.76
2019-03-10T03:48:50.185Z,98917.55
2019-03-10T03:51:18.373Z,98913.30
2019-03-10T03:53:46.618Z,98904.79
2019-03-10T03:56:14.863Z,98896.69
2019-03-10T03:58:43.084Z,98886.83
2019-03-10T04:01:21.944Z,98882.98
2019-03-10T04:03:50.178Z,98873.53
2019-03-10T04:06:18.427Z,98848.52
2019-03-10T04:08:46.650Z,98848.23
2019-03-10T04:11:14.896Z,98844.73
2019-03-10T04:13:43.125Z,98831.45
2019-03-10T04:16:11.362Z,98822.41
2019-03-10T04:18:39.590Z,98803.98
2019-03-10T04:21:07.826Z,98788.13
2019-03-10T04:23:36.041Z,98785.97
2019-03-10T04:26:04.272Z,98779.91
2019-03-10T04:28:32.500Z,98781.59
2019-03-10T04:31:00.742Z,98772.50
2019-03-10T04:33:29.266Z,98766.06
2019-03-10T04:35:57.500Z,98757.49
2019-03-10T04:38:26.081Z,98744.20
2019-03-10T04:40:54.258Z,98735.52
2019-03-10T04:43:22.488Z,98725.67
2019-03-10T04:45:50.963Z,98713.31
2019-03-10T04:48:19.193Z,98709.41
2019-03-10T04:50:47.425Z,98702.84
2019-03-10T04:53:15.658Z,98705.97
2019-03-10T04:55:48.640Z,98707.16
2019-03-10T04:58:17.671Z,98700.43
2019-03-10T05:00:47.794Z,98694.95
2019-03-10T05:03:16.020Z,98686.91
2019-03-10T05:05:44.556Z,98687.32
2019-03-10T05:08:12.779Z,98683.88
2019-03-10T05:10:41.011Z,98678.34
2019-03-10T05:13:09.247Z,98667.27
2019-03-10T05:15:37.485Z,98669.25
2019-03-10T05:18:06.048Z,98662.84
2019-03-10T05:20:34.277Z,98657.71
2019-03-10T05:23:25.299Z,98652.81
2019-03-10T05:25:53.612Z,98638.27
2019-03-10T05:28:22.081Z,98624.08
2019-03-10T05:30:50.321Z,98627.46
2019-03-10T05:33:18.545Z,98620.53
2019-03-10T05:35:46.785Z,98607.66
2019-03-10T05:38:15.289Z,98571.03
2019-03-10T05:40:43.526Z,98591.72
2019-03-10T05:43:12.050Z,98582.73
2019-03-10T05:45:40.284Z,98579.36
2019-03-10T05:48:08.502Z,98574.13
2019-03-10T05:50:36.735Z,98558.80
2019-03-10T05:53:04.956Z,98551.97
2019-03-10T05:55:33.419Z,98551.77
2019-03-10T05:58:01.650Z,98546.23
2019-03-10T06:00:29.874Z,98533.12
2019-03-10T06:02:58.106Z,98525.48
2019-03-10T06:05:26.331Z,98510.20
2019-03-10T06:07:54.797Z,98513.64
2019-03-10T06:10:23.265Z,98503.38
2019-03-10T06:12:51.487Z,98499.64
2019-03-10T06:15:19.718Z,98494.72
2019-03-10T06:17:47.948Z,98482.78
2019-03-10T06:20:16.423Z,98482.42
2019-03-10T06:22:44.665Z,98477.70
2019-03-10T06:25:13.179Z,98467.55
2019-03-10T06:27:41.416Z,98472.22
2019-03-10T06:30:11.576Z,98444.65
2019-03-10T06:32:39.813Z,98434.29
2019-03-10T06:35:08.310Z,98427.27
2019-03-10T06:37:36.765Z,98416.64
2019-03-10T06:40:06.766Z,98400.39
2019-03-10T06:42:35.004Z,98397.31
2019-03-10T06:45:03.408Z,98390.44
2019-03-10T06:47:31.971Z,98380.28
2019-03-10T06:50:00.317Z,98372.42
2019-03-10T06:52:28.513Z,98379.51
2019-03-10T06:54:56.735Z,98363.39
2019-03-10T06:57:24.973Z,98364.58
2019-03-10T06:59:53.461Z,98347.50
2019-03-10T07:02:21.938Z,98326.62
2019-03-10T07:04:50.163Z,98338.20
2019-03-10T07:07:18.395Z,98333.03
2019-03-10T07:09:46.620Z,98325.38
2019-03-10T07:12:14.855Z,98303.99
2019-03-10T07:14:43.092Z,98311.59
2019-03-10T07:17:11.619Z,98312.32
2019-03-10T07:19:39.846Z,98308.37
2019-03-10T07:22:08.069Z,98307.50
2019-03-10T07:24:36.305Z,98289.23
2019-03-10T07:27:04.820Z,98282.66
2019-03-10T07:29:34.693Z,98287.98
2019-03-10T07:32:10.378Z,98294.13
2019-03-10T07:34:40.503Z,98292.27
2019-03-10T07:37:13.042Z,98283.00
2019-03-10T07:39:46.185Z,98283.55
2019-03-10T07:42:24.929Z,98288.74
2019-03-10T07:44:55.017Z,98273.48
2019-03-10T07:47:27.782Z,98274.39
2019-03-10T07:50:12.935Z,98272.33
2019-03-10T07:52:43.018Z,98264.63
2019-03-10T07:55:12.891Z,98263.98
2019-03-10T07:57:42.750Z,98258.11
2019-03-10T08:00:12.693Z,98241.97
2019-03-10T08:02:48.272Z,98247.14
2019-03-10T08:05:18.146Z,98249.30
2019-03-10T08:07:48.006Z,98233.57
2019-03-10T08:10:20.815Z,98223.80
2019-03-10T08:12:53.315Z,98227.23
2019-03-10T08:15:23.181Z,98214.85
2019-03-10T08:17:58.742Z,98210.59
2019-03-10T08:20:28.612Z,98212.82
2019-03-10T08:22:59.315Z,98212.45
2019-03-10T08:25:29.446Z,98195.80
2019-03-10T08:28:01.933Z,98192.48
2019-03-10T08:30:47.025Z,98192.94
2019-03-10T08:33:28.608Z,98180.55
2019-03-10T08:36:04.182Z,98175.58
2019-03-10T08:38:49.120Z,98178.00
2019-03-10T08:41:37.089Z,98158.09
2019-03-10T08:44:12.963Z,98162.62
2019-03-10T08:46:45.936Z,98160.12
2019-03-10T08:49:18.457Z,98153.39
2019-03-10T08:51:48.547Z,98158.11
2019-03-10T08:54:21.578Z,98146.76
2019-03-10T08:56:57.495Z,98160.13
2019-03-10T08:59:27.614Z,98155.09
2019-03-10T09:02:02.907Z,98154.19
2019-03-10T09:04:38.959Z,98141.48
2019-03-10T09:07:08.826Z,98134.80
2019-03-10T09:09:38.696Z,98133.93
2019-03-10T09:12:08.560Z,98131.45
2019-03-10T09:14:38.658Z,98124.25
2019-03-10T09:17:08.747Z,98110.81
2019-03-10T09:19:38.852Z,98105.02
2019-03-10T09:22:20.566Z,98111.66
2019-03-10T09:24:56.315Z,98109.28
2019-03-10T09:27:42.394Z,98098.77
2019-03-10T09:30:24.574Z,98097.66
2019-03-10T09:32:57.359Z,98093.25
2019-03-10T09:35:43.218Z,98086.47
2019-03-10T09:38:24.883Z,98087.41
2019-03-10T09:41:04.043Z,98084.48
2019-03-10T09:43:42.590Z,98074.69
2019-03-10T09:46:12.692Z,98069.62
2019-03-10T09:48:57.697Z,98065.07
2019-03-10T09:51:27.574Z,98070.42
2019-03-10T09:53:57.443Z,98073.84
2019-03-10T09:56:32.985Z,98071.67
2019-03-10T09:59:11.569Z,98074.60
2019-03-10T10:01:44.313Z,98067.65
2019-03-10T10:04:14.399Z,98059.79
2019-03-10T10:06:47.209Z,98076.54
2019-03-10T10:09:17.320Z,98088.83
2019-03-10T10:11:55.930Z,98098.62
2019-03-10T10:14:34.636Z,98079.70
2019-03-10T10:17:04.735Z,98064.98
2019-03-10T10:19:40.777Z,98035.83
2019-03-10T10:22:22.749Z,98055.20
2019-03-10T10:25:01.432Z,98060.16
2019-03-10T10:27:47.913Z,98029.03
2019-03-10T10:30:18.027Z,98010.38
2019-03-10T10:32:47.907Z,98001.95
2019-03-10T10:35:17.773Z,98000.42
2019-03-10T10:37:47.655Z,97999.67
2019-03-10T10:40:29.688Z,98001.95
2019-03-10T10:43:08.802Z,98009.84
2019-03-10T10:45:38.922Z,97988.41
2019-03-10T10:48:09.018Z,97986.80
2019-03-10T10:50:39.119Z,97989.89
2019-03-10T10:53:09.209Z,97988.30
2019-03-10T10:55:39.520Z,97977.19
2019-03-10T10:58:12.028Z,97990.59
2019-03-10T11:00:44.292Z,98012.55
2019-03-10T11:03:32.543Z,98012.50
2019-03-10T11:06:08.276Z,97990.00
2019-03-10T11:08:40.700Z,97986.86
2019-03-10T11:11:16.320Z,97991.53
2019-03-10T11:13:46.187Z,97994.13
2019-03-10T11:16:16.316Z,97988.91
2019-03-10T11:18:52.369Z,97980.70
2019-03-10T11:21:30.983Z,97997.53
2019-03-10T11:24:01.109Z,97992.37
2019-03-10T11:26:33.395Z,98033.72
2019-03-10T11:29:12.045Z,97982.94
2019-03-10T11:31:58.110Z,97963.17
2019-03-10T11:34:43.489Z,97959.73
2019-03-10T11:37:16.258Z,97964.50
2019-03-10T11:39:49.045Z,97967.98
2019-03-10T11:42:24.855Z,97982.23
2019-03-10T11:45:06.737Z,97972.82
2019-03-10T11:47:52.810Z,97992.67
2019-03-10T11:50:22.673Z,97968.19
2019-03-10T11:52:58.398Z,97984.55
2019-03-10T11:55:34.434Z,97982.84
2019-03-10T11:58:12.957Z,97976.80
2019-03-10T12:00:45.936Z,97983.70
2019-03-10T12:03:21.719Z,97991.89
2019-03-10T12:06:00.120Z,97989.35
2019-03-10T12:08:35.496Z,98014.36
2019-03-10T12:11:03.947Z,97996.25
2019-03-10T12:13:32.416Z,98021.22
2019-03-10T12:16:00.658Z,98012.16
2019-03-10T12:18:28.899Z,98003.05
2019-03-10T12:20:57.357Z,97975.03
2019-03-10T12:23:25.598Z,97982.78
2019-03-10T12:25:53.844Z,97999.15
2019-03-10T12:28:22.080Z,97969.01
2019-03-10T12:30:50.320Z,97972.51
2019-03-10T12:33:18.551Z,97957.42
2019-03-10T12:35:46.788Z,97947.98
2019-03-10T12:38:15.026Z,97950.58
2019-03-10T12:40:43.486Z,97937.67
2019-03-10T12:43:11.943Z,97945.42
2019-03-10T12:45:40.400Z,97938.55
2019-03-10T12:48:08.895Z,97936.41
2019-03-10T12:50:37.125Z,97911.84
2019-03-10T12:53:05.650Z,97922.63
2019-03-10T12:55:33.896Z,97912.73
2019-03-10T12:58:02.410Z,97903.66
2019-03-10T13:00:30.889Z,97895.81
2019-03-10T13:02:59.124Z,97902.29
2019-03-10T13:05:28.324Z,97873.36
2019-03-10T13:07:57.008Z,97933.39
2019-03-10T13:10:25.474Z,97927.77
2019-03-10T13:12:53.703Z,97925.18
2019-03-10T13:15:21.945Z,97922.59
2019-03-10T13:17:50.172Z,97924.75
2019-03-10T13:20:27.752Z,97933.84
2019-03-10T13:22:48.590Z,97941.62
2019-03-10T13:25:16.828Z,97932.98
2019-03-10T13:27:45.063Z,97939.02
2019-03-10T13:30:15.340Z,97943.80
2019-03-10T13:32:44.563Z,97955.88
2019-03-10T13:35:13.100Z,97944.24
2019-03-10T13:37:41.335Z,97967.97
2019-03-10T13:40:14.272Z,97964.09
2019-03-10T13:42:42.519Z,97972.28
2019-03-10T13:45:13.272Z,97964.95
2019-03-10T13:47:41.512Z,97963.64
2019-03-10T13:50:12.850Z,97956.73
2019-03-10T13:52:41.317Z,97972.29
2019-03-10T13:55:10.085Z,97984.36
2019-03-10T13:57:38.332Z,98013.72
2019-03-10T14:00:13.217Z,98008.09
2019-03-10T14:02:41.461Z,97991.25
2019-03-10T14:05:09.862Z,98033.98
2019-03-10T14:07:38.341Z,98039.17
2019-03-10T14:10:10.738Z,98027.95
2019-03-10T14:12:39.073Z,98039.61
2019-03-10T14:15:12.160Z,98054.73
2019-03-10T14:17:40.618Z,98074.59
2019-03-10T14:20:13.717Z,98051.70
2019-03-10T14:22:41.966Z,98075.05
2019-03-10T14:25:12.069Z,98074.59
2019-03-10T14:27:40.530Z,98074.16
2019-03-10T14:30:14.064Z,98087.09
2019-03-10T14:32:42.526Z,98119.45
2019-03-10T14:35:11.423Z,98136.25
2019-03-10T14:37:39.663Z,98117.23
2019-03-10T14:40:20.050Z,98153.41
2019-03-10T14:42:48.290Z,98120.22
2019-03-10T14:45:19.899Z,98124.50
2019-03-10T14:47:48.362Z,98115.44
2019-03-10T14:50:20.000Z,98119.70
2019-03-10T14:52:48.299Z,98135.66
2019-03-10T14:55:23.444Z,98137.86
2019-03-10T14:57:51.676Z,98155.20
2019-03-10T15:00:27.314Z,98127.65
2019-03-10T15:02:55.851Z,98153.16
2019-03-10T15:05:24.078Z,98151.45
2019-03-10T15:07:52.591Z,98165.72
2019-03-10T15:10:21.615Z,98163.07
2019-03-10T15:12:50.086Z,98171.23
2019-03-10T15:15:23.006Z,98176.75
2019-03-10T15:17:51.560Z,98170.19
2019-03-10T15:20:21.589Z,98181.74
2019-03-10T15:22:50.040Z,98172.63
2019-03-10T15:25:19.343Z,98181.19
2019-03-10T15:27:47.546Z,98183.30
2019-03-10T15:30:20.789Z,98204.03
2019-03-10T15:32:49.019Z,98201.00
2019-03-10T15:35:17.255Z,98231.17
2019-03-10T15:37:45.713Z,98256.50
2019-03-10T15:40:17.352Z,98249.62
2019-03-10T15:42:45.851Z,98244.44
2019-03-10T15:45:16.516Z,98246.13
2019-03-10T15:47:45.314Z,98274.93
2019-03-10T15:50:16.707Z,98257.63
2019-03-10T15:52:44.946Z,98285.09
2019-03-10T15:55:13.407Z,98297.99
2019-03-10T15:57:49.730Z,98309.06
2019-03-10T16:00:23.756Z,98265.02
2019-03-10T16:02:52.012Z,98310.98
2019-03-10T16:05:20.476Z,98308.37
2019-03-10T16:07:48.871Z,98354.34
2019-03-10T16:10:17.175Z,98284.13
2019-03-10T16:12:45.403Z,98343.89
2019-03-10T16:15:27.293Z,98345.06
2019-03-10T16:17:55.521Z,98345.91
2019-03-10T16:20:23.772Z,98336.34
2019-03-10T16:22:52.316Z,98335.39
2019-03-10T16:25:20.631Z,98367.17
2019-03-10T16:27:50.035Z,98379.95
2019-03-10T16:30:19.312Z,98386.83
2019-03-10T16:32:47.539Z,98395.86
2019-03-10T16:35:15.865Z,98420.33
2019-03-10T16:37:44.102Z,98423.64
2019-03-10T16:40:16.544Z,98445.44
2019-03-10T16:42:45.088Z,98451.27
2019-03-10T16:45:15.856Z,98471.56
2019-03-10T16:47:44.097Z,98482.11
2019-03-10T16:50:15.431Z,98495.66
2019-03-10T16:52:43.930Z,98540.46
2019-03-10T16:55:12.628Z,98533.87
2019-03-10T16:57:41.081Z,98554.02
2019-03-10T17:00:10.364Z,98530.59
2019-03-10T17:02:38.889Z,98529.68
2019-03-10T17:05:16.368Z,98555.52
2019-03-10T17:07:44.678Z,98560.22
2019-03-10T17:10:15.699Z,98576.93
2019-03-10T17:12:44.156Z,98571.92
2019-03-10T17:15:18.442Z,98596.53
2019-03-10T17:17:46.914Z,98597.63
2019-03-10T17:20:16.940Z,98599.55
2019-03-10T17:22:45.312Z,98598.94
2019-03-10T17:25:14.791Z,98617.11
2019-03-10T17:27:43.092Z,98618.52
2019-03-10T17:30:19.219Z,98626.16
2019-03-10T17:32:47.675Z,98640.75
2019-03-10T17:35:16.835Z,98679.36
2019-03-10T17:37:45.210Z,98685.59
2019-03-10T17:40:18.194Z,98724.82
2019-03-10T17:42:46.413Z,98718.41
2019-03-10T17:45:19.514Z,98747.05
2019-03-10T17:47:48.408Z,98771.22
2019-03-10T17:50:17.827Z,98798.98
2019-03-10T17:52:46.443Z,98796.47
2019-03-10T17:55:16.021Z,98779.24
2019-03-10T17:57:44.476Z,98790.07
2019-03-10T18:00:19.126Z,98788.06
2019-03-10T18:02:47.574Z,98797.97
2019-03-10T18:05:16.062Z,98794.59
2019-03-10T18:07:44.508Z,98808.52
2019-03-10T18:10:17.911Z,98813.04
2019-03-10T18:12:46.141Z,98803.69
2019-03-10T18:15:17.879Z,98806.25
2019-03-10T18:17:46.274Z,98812.71
2019-03-10T18:20:17.901Z,98837.80
2019-03-10T18:22:46.357Z,98824.08
2019-03-10T18:25:15.525Z,98844.93
2019-03-10T18:27:44.145Z,98836.56
2019-03-10T18:30:23.410Z,98850.16
2019-03-10T18:32:51.707Z,98837.23
2019-03-10T18:35:20.208Z,98842.81
2019-03-10T18:37:48.431Z,98848.55
2019-03-10T18:40:23.615Z,98850.12
2019-03-10T18:42:52.301Z,98889.69
2019-03-10T18:45:21.200Z,98882.78
2019-03-10T18:47:49.768Z,98879.20
2019-03-10T18:50:28.399Z,98893.48
2019-03-10T18:52:56.620Z,98911.68
2019-03-10T18:55:25.021Z,98888.84
2019-03-10T18:57:53.245Z,98850.60
2019-03-10T19:00:31.883Z,98913.28
2019-03-10T19:03:00.120Z,98985.41
2019-03-10T19:05:28.360Z,98921.11
2019-03-10T19:07:56.886Z,98935.58
2019-03-10T19:10:25.158Z,98896.19
2019-03-10T19:12:53.648Z,98965.48
2019-03-10T19:15:26.363Z,98944.54
2019-03-10T19:17:54.628Z,98951.81
2019-03-10T19:20:23.034Z,98941.25
2019-03-10T19:22:51.572Z,98939.50
2019-03-10T19:25:19.871Z,98973.56
2019-03-10T19:27:48.511Z,98961.17
2019-03-10T19:30:21.828Z,98969.66
2019-03-10T19:32:50.067Z,98990.05
2019-03-10T19:35:18.537Z,98970.78
2019-03-10T19:37:46.765Z,98975.83
2019-03-10T19:40:16.332Z,99001.95
2019-03-10T19:42:44.568Z,98975.59
2019-03-10T19:45:15.498Z,98980.39
2019-03-10T19:47:43.802Z,98995.74
2019-03-10T19:50:20.867Z,99005.78
2019-03-10T19:52:49.098Z,98997.23
2019-03-10T19:55:17.555Z,99023.55
2019-03-10T19:57:46.020Z,99012.03
2019-03-10T20:00:20.453Z,99027.45
2019-03-10T20:02:48.910Z,99032.25
2019-03-10T20:05:17.216Z,99039.84
2019-03-10T20:07:45.776Z,99071.98
2019-03-10T20:10:18.774Z,99072.73
2019-03-10T20:12:47.068Z,99109.91
2019-03-10T20:15:22.912Z,99090.06
2019-03-10T20:17:51.376Z,99085.42
2019-03-10T20:20:27.539Z,99080.02
2019-03-10T20:22:55.761Z,99082.58
2019-03-10T20:25:24.004Z,99087.26
2019-03-10T20:27:52.232Z,99104.41
2019-03-10T20:30:24.284Z,99112.87
2019-03-10T20:32:52.577Z,99117.36
2019-03-10T20:35:20.843Z,99115.68
2019-03-10T20:37:49.066Z,99114.88
2019-03-10T20:40:21.647Z,99124.00
2019-03-10T20:42:49.872Z,99122.73
2019-03-10T20:45:18.329Z,99134.45
2019-03-10T20:47:46.632Z,99126.29
2019-03-10T20:50:18.589Z,99128.47
2019-03-10T20:52:46.817Z,99139.09
2019-03-10T20:55:15.389Z,99168.80
2019-03-10T20:57:44.045Z,99147.22
2019-03-10T21:00:21.385Z,99162.20
2019-03-10T21:02:49.621Z,99166.39
2019-03-10T21:05:18.077Z,99165.59
2019-03-10T21:07:46.372Z,99170.77
2019-03-10T21:10:18.633Z,99177.98
2019-03-10T21:12:46.947Z,99187.96
2019-03-10T21:15:18.081Z,99193.73
2019-03-10T21:17:46.482Z,99206.58
2019-03-10T21:20:22.023Z,99202.18
2019-03-10T21:22:50.496Z,99213.69
2019-03-10T21:25:23.315Z,99224.96
2019-03-10T21:27:51.860Z,99226.77
2019-03-10T21:30:24.866Z,99240.69
2019-03-10T21:32:53.432Z,99254.88
2019-03-10T21:35:21.664Z,99256.16
2019-03-10T21:37:49.896Z,99260.53
2019-03-10T21:40:20.262Z,99279.47
2019-03-10T21:42:48.495Z,99273.92
2019-03-10T21:45:16.976Z,99271.02
2019-03-10T21:47:45.211Z,99300.08
2019-03-10T21:50:15.077Z,99282.53
2019-03-10T21:52:43.534Z,99302.30
2019-03-10T21:55:16.173Z,99317.45
2019-03-10T21:57:44.413Z,99335.02
2019-03-10T22:00:16.054Z,99334.56
2019-03-10T22:02:44.843Z,99334.56
2019-03-10T22:05:14.243Z,99332.56
2019-03-10T22:07:42.468Z,99342.92
2019-03-10T22:10:26.968Z,99369.16
2019-03-10T22:12:48.754Z,99369.16
2019-03-10T22:15:18.108Z,99353.70
2019-03-10T22:17:46.561Z,99358.94
2019-03-10T22:20:16.820Z,99389.98
2019-03-10T22:22:49.261Z,99387.73
2019-03-10T22:25:15.442Z,99409.52
2019-03-10T22:27:45.834Z,99390.40
2019-03-10T22:30:18.521Z,99390.40
2019-03-10T22:32:46.753Z,99401.47
2019-03-10T22:35:15.217Z,99414.53
2019-03-10T22:37:43.675Z,99400.03
2019-03-10T22:40:14.720Z,99413.72
2019-03-10T22:42:42.944Z,99373.36
2019-03-10T22:45:15.752Z,99401.08
2019-03-10T22:47:44.274Z,99401.08
2019-03-10T22:50:16.397Z,99390.59
2019-03-10T22:52:44.687Z,99390.59
2019-03-10T22:55:13.764Z,99404.55
2019-03-10T22:57:41.983Z,99404.55
2019-03-10T23:00:15.563Z,99414.42
2019-03-10T23:02:43.782Z,99438.84
2019-03-10T23:05:12.013Z,99446.00
2019-03-10T23:07:40.469Z,99408.61
2019-03-10T23:10:11.674Z,99411.25
2019-03-10T23:12:40.128Z,99433.22
2019-03-10T23:15:10.534Z,99459.28
2019-03-10T23:17:38.985Z,99459.28
2019-03-10T23:20:12.836Z,99431.07
2019-03-10T23:22:41.052Z,99411.48
2019-03-10T23:25:09.528Z,99411.48
2019-03-10T23:27:37.978Z,99383.83
2019-03-10T23:30:11.739Z,99383.44
2019-03-10T23:32:39.972Z,99383.44
2019-03-10T23:35:08.430Z,99356.72
2019-03-10T23:37:36.664Z,99384.72
2019-03-10T23:40:08.230Z,99384.72
2019-03-10T23:42:36.470Z,99353.94
2019-03-10T23:45:07.658Z,99364.72
2019-03-10T23:47:36.120Z,99362.27
2019-03-10T23:50:05.578Z,99362.27
2019-03-10T23:52:34.041Z,99355.51
2019-03-10T23:55:02.491Z,99342.86
2019-03-10T23:57:30.724Z,99342.86
2019-03-10T23:59:58.948Z,99324.67
